Latest Weather Observations for Latrobe Valley

IDV60801

Issued at 1:31 am EST Monday 27 April 2015 (issued every 30 minutes, with the page automatically refreshed every 10 minutes)

About weather observations | Map of weather stations | Latest weather observations for VIC | Other Formats
Station Details ID: 085280 Name: LATROBE VALLEY AIRPORT Lat: -38.21 Lon: 146.47 Height: 55.7 m
Data from the previous 72 hours. | See also: Recent months at Latrobe Valley
Date/Time
EST
Temp
°C
App
Temp
°C
Dew
Point
Rel
Hum
%
Delta-T
°C
Wind Press
QNH
hPa
Press
MSL
hPa
Rain
since 9 am
mm
Dir
 
Spd
km/h
Gust
km/h
Spd
kts
Gust
kts
27/01:30am 10.5 6.9 10.5 100 0.0 WNW 20 28 11 15 1018.8 1018.7 0.8
27/01:20am 10.5 6.9 10.5 100 0.0 WNW 20 26 11 14 1018.7 1018.6 0.8
27/01:15am 10.5 6.5 10.5 100 0.0 WNW 22 28 12 15 1018.7 1018.6 0.8
27/01:03am 10.5 6.1 10.5 100 0.0 WNW 24 35 13 19 1018.6 1018.5 0.8
27/01:00am 10.5 6.1 10.5 100 0.0 WNW 24 32 13 17 1018.6 1018.5 0.8
27/12:30am 10.4 6.0 10.4 100 0.0 WNW 24 30 13 16 1018.8 1018.7 0.8
27/12:00am 10.3 6.6 10.3 100 0.0 WNW 20 33 11 18 1018.9 1018.8 0.6
 
Date/Time
EST
Temp
°C
App
Temp
°C
Dew
Point
Rel
Hum
%
Delta-T
°C
Wind Press
QNH
hPa
Press
MSL
hPa
Rain
since 9 am
mm
Dir
 
Spd
km/h
Gust
km/h
Spd
kts
Gust
kts
26/11:30pm 10.1 6.4 10.1 100 0.0 WNW 20 28 11 15 1019.0 1018.9 0.6
26/11:00pm 10.2 5.7 10.2 100 0.0 WNW 24 32 13 17 1018.9 1018.8 0.6
26/10:48pm 10.0 5.5 10.0 100 0.0 WNW 24 30 13 16 1019.0 1018.9 0.6
26/10:32pm 10.1 6.0 10.1 100 0.0 WNW 22 32 12 17 1019.2 1019.1 0.6
26/10:30pm 10.1 6.0 10.1 100 0.0 WNW 22 32 12 17 1019.2 1019.1 0.6
26/10:00pm 10.0 6.3 10.0 100 0.0 WNW 20 28 11 15 1019.2 1019.1 0.6
26/09:54pm 10.3 6.3 10.3 100 0.0 WNW 22 28 12 15 1019.3 1019.2 0.6
26/09:35pm 10.4 6.9 10.2 99 0.1 WNW 19 26 10 14 1019.5 1019.5 0.4
26/09:30pm 10.7 7.3 10.4 98 0.2 WNW 19 24 10 13 1019.4 1019.4 0.2
26/09:00pm 10.6 7.2 10.4 99 0.1 WNW 19 24 10 13 1019.2 1019.1 0.2
26/08:30pm 10.4 6.7 10.2 99 0.1 WNW 20 26 11 14 1019.1 1019.0 0.2
26/08:00pm 10.5 6.5 10.3 99 0.1 WNW 22 33 12 18 1019.0 1018.9 0.2
26/07:30pm 10.6 7.9 10.4 99 0.1 WNW 15 20 8 11 1018.8 1018.7 0.2
26/07:00pm 10.2 7.5 10.2 100 0.0 W 15 20 8 11 1018.9 1018.8 0.2
26/06:49pm 10.3 6.8 10.3 100 0.0 WSW 19 24 10 13 1018.8 1018.7 0.2
26/06:30pm 10.6 4.1 10.4 99 0.1 WSW 35 50 19 27 1019.0 1018.9 0.2
26/06:27pm 10.9 4.3 10.1 95 0.4 W 35 50 19 27 1018.9 1018.8 0.2
26/06:21pm 11.8 5.6 9.2 84 1.3 W 32 50 17 27 1018.7 1018.6 0.2
26/06:00pm 12.1 7.7 8.9 81 1.6 W 22 32 12 17 1018.3 1018.2 0.2
26/05:30pm 11.7 7.9 9.8 88 1.0 W 20 28 11 15 1017.8 1017.7 0.2
26/05:00pm 11.9 8.3 10.6 92 0.7 W 20 28 11 15 1017.7 1017.6 0.2
26/04:30pm 11.7 8.2 10.8 94 0.5 W 20 28 11 15 1017.6 1017.5 0.2
26/04:26pm 11.6 7.7 10.7 94 0.5 W 22 28 12 15 1017.6 1017.5 0.2
26/04:16pm 11.5 6.6 11.2 98 0.2 WSW 28 46 15 25 1017.5 1017.4 0.0
26/04:09pm 11.6 4.9 11.1 97 0.3 WSW 37 48 20 26 1017.4 1017.3 0.0
26/04:00pm 13.5 8.3 9.0 74 2.3 W 26 39 14 21 1017.0 1016.9 0.0
26/03:30pm 13.8 7.5 8.8 72 2.5 WSW 32 43 17 23 1016.8 1016.7 0.0
26/03:00pm 13.8 9.2 9.5 75 2.2 W 24 33 13 18 1016.8 1016.7 0.0
26/02:30pm 13.3 8.4 10.1 81 1.7 WSW 26 35 14 19 1016.8 1016.7 0.0
26/02:00pm 13.6 8.6 10.8 83 1.5 W 28 35 15 19 1016.6 1016.5 0.0
26/01:30pm 12.8 7.3 10.5 86 1.2 W 30 39 16 21 1016.6 1016.5 0.0
26/01:00pm 14.4 8.3 9.8 74 2.4 WSW 32 41 17 22 1016.3 1016.2 0.0
26/12:30pm 13.8 8.4 11.0 83 1.5 WSW 30 41 16 22 1016.5 1016.4 0.0
26/12:21pm 13.5 8.1 11.0 85 1.3 WSW 30 48 16 26 1016.5 1016.4 0.0
26/12:17pm 13.0 7.5 10.5 85 1.3 WSW 30 48 16 26 1016.5 1016.4 0.0
26/12:03pm 12.1 7.2 11.3 95 0.4 WSW 28 37 15 20 1016.6 1016.5 0.0
26/12:00pm 12.4 7.4 11.0 91 0.7 WSW 28 37 15 20 1016.6 1016.5 0.0
26/11:30am 12.6 7.3 11.2 91 0.7 WSW 30 39 16 21 1016.7 1016.6 0.0
26/11:00am 13.3 8.3 11.0 86 1.2 W 28 37 15 20 1016.8 1016.7 0.0
26/10:30am 13.3 8.2 10.7 84 1.4 W 28 39 15 21 1016.6 1016.5 0.0
26/10:00am 12.0 7.6 10.4 90 0.8 W 24 30 13 16 1016.7 1016.6 0.0
26/09:30am 12.0 6.2 9.4 84 1.3 W 30 43 16 23 1016.5 1016.4 0.0
26/09:00am 11.9 7.7 9.6 86 1.2 W 22 30 12 16 1016.3 1016.2 0.4
26/08:30am 11.9 6.4 9.3 84 1.3 W 28 35 15 19 1016.3 1016.2 0.4
26/08:00am 12.2 7.3 10.1 87 1.1 WSW 26 39 14 21 1015.6 1015.5 0.4
26/07:30am 11.5 7.9 10.7 95 0.4 WSW 20 26 11 14 1015.3 1015.2 0.4
26/07:00am 11.2 6.4 10.4 95 0.4 W 26 35 14 19 1014.7 1014.6 0.4
26/06:30am 11.1 6.1 10.8 98 0.2 WSW 28 37 15 20 1014.3 1014.2 0.4
26/06:00am 11.2 7.0 11.0 99 0.1 WSW 24 35 13 19 1014.0 1013.9 0.4
26/05:30am 11.6 7.4 11.1 97 0.3 W 24 30 13 16 1013.8 1013.7 0.4
26/05:00am 11.9 7.3 11.1 95 0.4 WSW 26 33 14 18 1013.4 1013.3 0.4
26/04:30am 11.9 8.2 11.6 98 0.2 WSW 22 30 12 16 1013.3 1013.2 0.4
26/04:00am 12.1 8.1 11.9 99 0.1 WSW 24 33 13 18 1013.0 1013.0 0.4
26/03:41am 12.1 8.1 11.9 99 0.1 WSW 24 32 13 17 1012.8 1012.8 0.4
26/03:30am 12.1 8.5 11.9 99 0.1 WSW 22 28 12 15 1012.7 1012.7 0.4
26/03:00am 12.3 8.7 12.0 98 0.2 WSW 22 32 12 17 1012.5 1012.5 0.4
26/02:30am 12.4 8.9 12.2 99 0.1 WSW 22 32 12 17 1012.4 1012.4 0.4
26/02:00am 12.5 8.3 12.5 100 0.0 WSW 26 33 14 18 1012.3 1012.3 0.4
26/01:57am 12.5 8.3 12.5 100 0.0 WSW 26 33 14 18 1012.3 1012.3 0.4
26/01:47am 12.5 8.3 12.5 100 0.0 WSW 26 32 14 17 1012.2 1012.2 0.4
26/01:30am 12.8 8.7 12.8 100 0.0 WSW 26 35 14 19 1012.1 1012.1 0.2
26/01:00am 12.9 8.9 12.9 100 0.0 WSW 26 33 14 18 1012.0 1012.0 0.2
26/12:30am 13.4 9.5 13.4 100 0.0 WSW 26 35 14 19 1011.8 1011.8 0.2
26/12:00am 13.2 11.0 13.2 100 0.0 WSW 17 20 9 11 1011.5 1011.5 0.2
 
Date/Time
EST
Temp
°C
App
Temp
°C
Dew
Point
Rel
Hum
%
Delta-T
°C
Wind Press
QNH
hPa
Press
MSL
hPa
Rain
since 9 am
mm
Dir
 
Spd
km/h
Gust
km/h
Spd
kts
Gust
kts
25/11:56pm 13.1 10.8 13.1 100 0.0 WSW 17 20 9 11 1011.4 1011.4 0.2
25/11:30pm 12.5 10.1 12.5 100 0.0 W 17 22 9 12 1011.2 1011.2 0.2
25/11:00pm 12.6 10.2 12.6 100 0.0 W 17 19 9 10 1011.3 1011.3 0.2
25/10:30pm 12.8 10.8 12.8 100 0.0 WNW 15 19 8 10 1011.3 1011.3 0.2
25/10:00pm 13.0 11.5 13.0 100 0.0 W 13 19 7 10 1011.7 1011.7 0.2
25/09:30pm 12.5 10.8 12.5 100 0.0 WNW 13 17 7 9 1011.4 1011.4 0.2
25/09:27pm 12.5 10.4 12.5 100 0.0 WNW 15 17 8 9 1011.3 1011.3 0.2
25/09:17pm 12.6 10.6 12.6 100 0.0 WNW 15 19 8 10 1011.2 1011.2 0.2
25/09:13pm 12.6 10.6 12.6 100 0.0 WNW 15 17 8 9 1011.1 1011.1 0.2
25/09:00pm 12.7 11.5 12.7 100 0.0 NW 11 17 6 9 1011.2 1011.2 0.2
25/08:41pm 12.5 11.2 12.5 100 0.0 WNW 11 13 6 7 1011.1 1011.1 0.2
25/08:33pm 12.7 11.5 12.7 100 0.0 WNW 11 15 6 8 1011.1 1011.1 0.2
25/08:30pm 12.8 11.6 12.8 100 0.0 WNW 11 15 6 8 1011.1 1011.1 0.2
25/08:00pm 12.9 11.7 12.9 100 0.0 W 11 15 6 8 1010.9 1010.9 0.2
25/07:53pm 12.9 11.3 12.9 100 0.0 W 13 15 7 8 1010.8 1010.8 0.2
25/07:30pm 12.8 11.2 12.8 100 0.0 WNW 13 17 7 9 1010.5 1010.5 0.2
25/07:00pm 13.5 11.8 13.5 100 0.0 WNW 15 19 8 10 1010.4 1010.4 0.2
25/06:30pm 13.6 11.5 13.6 100 0.0 W 17 24 9 13 1009.8 1009.8 0.2
25/06:00pm 13.7 12.0 13.7 100 0.0 WNW 15 19 8 10 1009.6 1009.6 0.2
25/05:30pm 14.2 12.9 13.7 97 0.3 WNW 13 17 7 9 1009.3 1009.3 0.0
25/05:00pm 14.4 12.8 13.8 96 0.3 WNW 15 19 8 10 1008.8 1008.8 0.0
25/04:30pm 14.7 13.0 13.7 94 0.6 WNW 15 19 8 10 1008.7 1008.7 0.0
25/04:00pm 15.0 13.3 13.7 92 0.7 WNW 15 19 8 10 1008.5 1008.5 0.0
25/03:30pm 15.0 13.7 13.7 92 0.7 WNW 13 15 7 8 1008.3 1008.3 0.0
25/03:00pm 15.1 14.6 13.8 92 0.7 WNW 9 13 5 7 1008.1 1008.1 0.0
25/02:30pm 14.9 13.9 13.4 91 0.8 WNW 11 15 6 8 1008.0 1008.0 0.0
25/02:00pm 14.7 13.6 13.2 91 0.8 WNW 11 15 6 8 1008.0 1008.0 0.0
25/01:30pm 14.6 14.0 13.6 94 0.6 NW 9 13 5 7 1008.0 1008.0 0.0
25/01:00pm 14.5 13.5 13.5 94 0.6 NW 11 15 6 8 1008.1 1008.1 0.0
25/12:30pm 14.3 13.8 13.8 97 0.3 NW 9 13 5 7 1008.4 1008.4 0.0
25/12:00pm 14.2 13.6 13.6 96 0.3 WNW 9 13 5 7 1008.6 1008.6 0.0
25/11:30am 14.1 13.6 13.9 99 0.1 WNW 9 13 5 7 1008.8 1008.8 0.0
25/11:21am 14.0 12.7 13.8 99 0.1 WNW 13 17 7 9 1008.7 1008.7 0.0
25/11:00am 13.6 12.7 13.6 100 0.0 W 11 13 6 7 1008.6 1008.6 0.0
25/10:30am 13.7 12.4 13.7 100 0.0 W 13 17 7 9 1008.6 1008.6 0.0
25/10:00am 13.4 12.8 13.4 100 0.0 W 9 13 5 7 1008.6 1008.6 0.0
25/09:30am 13.1 12.4 13.1 100 0.0 W 9 13 5 7 1008.6 1008.6 0.0
25/09:22am 13.1 12.0 13.1 100 0.0 W 11 13 6 7 1008.6 1008.6 0.0
25/09:00am 13.1 11.6 13.1 100 0.0 WNW 13 15 7 8 1008.5 1008.5 0.2
25/08:30am 12.5 11.6 12.5 100 0.0 W 9 13 5 7 1008.0 1008.0 0.2
25/08:00am 11.6 10.8 11.6 100 0.0 W 7 9 4 5 1007.6 1007.6 0.2
25/07:52am 11.4 10.7 11.4 100 0.0 WSW 6 7 3 4 1007.6 1007.6 0.2
25/07:30am 10.2 9.2 10.2 100 0.0 WNW 6 7 3 4 1007.5 1007.5 0.2
25/07:17am 10.0 8.3 10.0 100 0.0 W 9 11 5 6 1007.4 1007.4 0.2
25/07:00am 10.5 10.3 10.5 100 0.0 WNW 2 7 1 4 1006.9 1006.9 0.2
25/06:56am 10.3 10.4 10.3 100 0.0 CALM 0 6 0 3 1007.0 1007.0 0.2
25/06:41am 9.9 8.6 9.9 100 0.0 WNW 7 11 4 6 1006.8 1006.8 0.2
25/06:30am 10.2 8.6 10.2 100 0.0 WSW 9 11 5 6 1006.6 1006.6 0.2
25/06:25am 10.4 8.9 10.4 100 0.0 SW 9 9 5 5 1006.6 1006.6 0.2
25/06:00am 9.6 8.2 9.6 100 0.0 WSW 7 9 4 5 1006.4 1006.4 0.2
25/05:53am 10.1 9.0 10.1 100 0.0 W 6 7 3 4 1006.2 1006.2 0.2
25/05:30am 11.1 10.1 11.1 100 0.0 WSW 7 7 4 4 1006.1 1006.1 0.2
25/05:00am 11.4 10.7 11.4 100 0.0 SSW 6 9 3 5 1005.8 1005.8 0.2
25/04:30am 11.4 11.8 11.4 100 0.0 CALM 0 0 0 0 1005.7 1005.7 0.2
25/04:00am 11.5 10.3 11.5 100 0.0 WNW 9 11 5 6 1005.7 1005.7 0.2
25/03:30am 12.3 10.6 12.3 100 0.0 WNW 13 13 7 7 1006.0 1006.0 0.2
25/03:00am 12.5 11.2 12.5 100 0.0 NW 11 15 6 8 1006.1 1006.1 0.2
25/02:30am 12.7 11.5 12.7 100 0.0 WNW 11 15 6 8 1006.3 1006.3 0.0
25/02:00am 12.6 10.6 12.6 100 0.0 WNW 15 17 8 9 1006.4 1006.4 0.0
25/01:45am 12.7 10.3 12.7 100 0.0 W 17 24 9 13 1006.3 1006.3 0.0
25/01:30am 11.8 9.9 11.8 100 0.0 W 13 13 7 7 1006.4 1006.4 0.0
25/01:00am 11.3 10.0 11.3 100 0.0 WSW 9 13 5 7 1006.1 1006.1 0.0
25/12:54am 11.7 10.5 11.7 100 0.0 WSW 9 11 5 6 1005.9 1005.9 0.0
25/12:30am 11.9 11.4 11.9 100 0.0 NNW 6 7 3 4 1005.9 1005.9 0.0
25/12:00am 11.5 10.3 11.5 100 0.0 NNE 9 9 5 5 1005.7 1005.7 0.0
 
Date/Time
EST
Temp
°C
App
Temp
°C
Dew
Point
Rel
Hum
%
Delta-T
°C
Wind Press
QNH
hPa
Press
MSL
hPa
Rain
since 9 am
mm
Dir
 
Spd
km/h
Gust
km/h
Spd
kts
Gust
kts
24/11:30pm 12.4 12.0 12.4 100 0.0 NNW 6 9 3 5 1005.6 1005.6 0.0
24/11:00pm 12.5 12.0 12.5 100 0.0 W 7 9 4 5 1005.6 1005.6 0.0
24/10:30pm 13.0 12.8 13.0 100 0.0 SW 6 9 3 5 1005.6 1005.6 0.0
24/10:00pm 13.1 12.7 13.1 100 0.0 SW 7 9 4 5 1005.6 1005.6 0.0
24/09:30pm 12.5 13.3 12.5 100 0.0 CALM 0 0 0 0 1005.4 1005.4 0.0
24/09:00pm 12.5 12.0 12.5 100 0.0 W 7 11 4 6 1005.3 1005.3 0.0
24/08:30pm 13.1 12.3 12.8 98 0.2 WNW 9 13 5 7 1005.0 1005.0 0.0
24/08:00pm 13.0 12.2 12.8 99 0.1 NW 9 11 5 6 1004.7 1004.7 0.0
24/07:30pm 14.1 13.9 13.5 96 0.3 WSW 7 9 4 5 1004.6 1004.6 0.0
24/07:00pm 14.1 13.4 13.1 94 0.6 WNW 9 11 5 6 1004.4 1004.4 0.0
24/06:30pm 15.0 13.6 13.5 91 0.8 W 13 15 7 8 1004.0 1003.9 0.0
24/06:00pm 15.7 14.4 13.7 88 1.1 W 13 17 7 9 1003.5 1003.4 0.0
24/05:30pm 16.4 15.2 13.9 85 1.4 SW 13 19 7 10 1002.9 1002.8 0.0
24/05:00pm 17.5 15.9 13.8 79 2.1 W 15 20 8 11 1002.6 1002.5 0.0
24/04:30pm 18.1 16.2 14.2 78 2.2 WSW 17 22 9 12 1002.5 1002.4 0.0
24/04:00pm 19.1 17.7 14.6 75 2.6 W 15 19 8 10 1002.5 1002.4 0.0
24/03:30pm 18.6 16.4 14.5 77 2.4 W 19 28 10 15 1002.4 1002.3 0.0
24/03:00pm 19.2 18.4 15.1 77 2.4 WSW 13 19 7 10 1002.3 1002.2 0.0
24/02:30pm 19.4 18.4 15.7 79 2.2 W 15 19 8 10 1002.2 1002.1 0.0
24/02:00pm 18.6 17.5 15.3 81 1.9 W 15 24 8 13 1002.6 1002.5 0.0
24/01:30pm 18.6 17.3 15.7 83 1.7 W 17 20 9 11 1002.6 1002.5 0.0
24/01:00pm 17.6 18.3 16.1 91 0.9 W 7 13 4 7 1002.9 1002.8 0.0
24/12:58pm 17.5 18.6 16.5 94 0.6 W 6 13 3 7 1003.0 1002.9 0.0
24/12:30pm 16.7 18.6 16.7 100 0.0 NW 2 6 1 3 1003.5 1003.4 0.0
24/12:00pm 16.3 17.1 16.3 100 0.0 NW 7 9 4 5 1004.0 1003.9 0.0
24/11:30am 16.6 16.7 16.6 100 0.0 WNW 11 15 6 8 1004.4 1004.4 0.0
24/11:00am 16.1 16.0 16.1 100 0.0 NW 11 13 6 7 1004.4 1004.4 0.0
24/10:48am 16.4 16.1 16.4 100 0.0 NW 13 17 7 9 1004.5 1004.5 0.0
24/10:30am 16.0 16.3 16.0 100 0.0 WNW 9 11 5 6 1004.6 1004.6 0.0
24/10:00am 15.2 16.1 15.2 100 0.0 WNW 4 7 2 4 1004.8 1004.8 0.0
24/09:30am 14.6 16.1 14.6 100 0.0 CALM 0 0 0 0 1004.9 1004.9 0.0
24/09:00am 14.5 14.8 14.5 100 0.0 WSW 6 7 3 4 1005.3 1005.3 1.0
24/08:30am 14.4 15.8 14.4 100 0.0 CALM 0 0 0 0 1005.2 1005.2 1.0
24/08:00am 14.2 15.5 14.2 100 0.0 CALM 0 6 0 3 1005.3 1005.3 1.0
24/07:53am 14.2 15.5 14.2 100 0.0 CALM 0 0 0 0 1005.2 1005.2 1.0
24/07:30am 14.1 15.4 14.1 100 0.0 CALM 0 0 0 0 1005.2 1005.2 0.8
24/07:00am 14.2 14.4 14.2 100 0.0 NW 6 9 3 5 1005.0 1005.0 0.4
24/06:47am 14.2 14.2 14.2 100 0.0 NW 7 11 4 6 1004.9 1004.9 0.4
24/06:30am 14.3 14.0 14.3 100 0.0 WNW 9 13 5 7 1004.9 1004.9 0.4
24/06:00am 14.9 15.4 14.9 100 0.0 WSW 6 9 3 5 1004.9 1004.9 0.4
24/05:30am 14.9 15.7 14.9 100 0.0 WNW 4 7 2 4 1005.2 1005.2 0.2
24/05:00am 14.9 16.5 14.9 100 0.0 CALM 0 0 0 0 1005.1 1005.1 0.2
24/04:30am 14.9 16.5 14.9 100 0.0 CALM 0 0 0 0 1005.2 1005.2 0.2
24/04:00am 14.9 16.5 14.9 100 0.0 CALM 0 0 0 0 1005.5 1005.5 0.2
24/03:30am 15.0 15.5 15.0 100 0.0 E 6 7 3 4 1005.8 1005.8 0.2
24/03:00am 15.0 15.3 15.0 100 0.0 ENE 7 11 4 6 1006.1 1006.1 0.0
24/02:30am 15.1 15.4 15.1 100 0.0 ENE 7 11 4 6 1006.5 1006.5 0.0
24/02:00am 15.1 15.4 15.1 100 0.0 E 7 11 4 6 1007.0 1007.0 0.0

Other Formats:

Comma delimited format used in spreadsheet applications
http://www.bom.gov.au/fwo/IDV60801/IDV60801.94891.axf

JavaScript Object Notation format (JSON) in row-major order
http://www.bom.gov.au/fwo/IDV60801/IDV60801.94891.json